Time;durP1;ratioP1;P1;durP2;ratioP2;P2;SDS_P1;SDS_P2;PMS_P1;PMS_P2;Temp;Humidity;BMP_temperature;BMP_pressure;BME280_temperature;BME280_humidity;BME280_pressure;Samples;Min_cycle;Max_cycle;Signal;HPM_P1;HPM_P2
2021/09/16 00:01:40;;;;;;;9.82;1.50;;;;;;;13.89;100.00;93749.25;5114973;28;20198;-80
2021/09/16 00:04:07;;;;;;;3.15;1.40;;;;;;;13.82;100.00;93751.16;5115207;28;20202;-81
2021/09/16 00:06:33;;;;;;;4.97;1.42;;;;;;;13.76;100.00;93746.78;5115208;28;20197;-81
2021/09/16 00:09:01;;;;;;;7.50;1.50;;;;;;;13.75;100.00;93745.97;5115079;28;20208;-81
2021/09/16 00:11:28;;;;;;;7.90;1.50;;;;;;;13.74;100.00;93748.81;5114888;28;20578;-81
2021/09/16 00:13:54;;;;;;;8.05;1.63;;;;;;;13.71;100.00;93744.03;5114715;28;20698;-81
2021/09/16 00:16:21;;;;;;;7.10;1.27;;;;;;;13.66;100.00;93758.59;5115047;28;20201;-81
2021/09/16 00:18:47;;;;;;;12.23;1.70;;;;;;;13.67;100.00;93765.47;5114911;28;20193;-81
2021/09/16 00:21:14;;;;;;;3.45;1.63;;;;;;;13.65;100.00;93759.59;5115040;28;20194;-80
2021/09/16 00:23:40;;;;;;;3.53;1.42;;;;;;;13.65;100.00;93751.72;5114789;28;20249;-82
2021/09/16 00:26:08;;;;;;;9.77;1.75;;;;;;;13.63;100.00;93756.41;5114511;28;20232;-81
2021/09/16 00:28:35;;;;;;;7.25;1.45;;;;;;;13.66;100.00;93753.34;5114209;28;20201;-82
2021/09/16 00:31:01;;;;;;;6.88;1.77;;;;;;;13.64;100.00;93762.47;5108515;28;20197;-82
2021/09/16 00:33:27;;;;;;;7.78;1.67;;;;;;;13.62;100.00;93762.69;5108125;28;20201;-81
2021/09/16 00:35:54;;;;;;;2.95;1.50;;;;;;;13.63;100.00;93759.03;5112963;28;20208;-81
2021/09/16 00:38:20;;;;;;;12.35;1.65;;;;;;;13.71;100.00;93759.78;5114431;28;20198;-81
2021/09/16 00:40:47;;;;;;;2.78;1.58;;;;;;;13.78;100.00;93766.53;5114269;28;20556;-80
2021/09/16 00:43:14;;;;;;;6.20;1.60;;;;;;;13.82;100.00;93772.13;5114150;28;20233;-80
2021/09/16 00:45:41;;;;;;;6.93;1.80;;;;;;;13.82;100.00;93772.13;5113936;28;20659;-80
2021/09/16 00:48:07;;;;;;;6.53;1.50;;;;;;;13.84;100.00;93781.41;5113053;28;20205;-80
2021/09/16 00:50:36;;;;;;;4.68;1.40;;;;;;;13.89;100.00;93772.88;5114225;28;20250;-81
2021/09/16 00:53:03;;;;;;;9.52;1.60;;;;;;;13.91;100.00;93773.44;5113372;28;20208;-80
2021/09/16 00:55:31;;;;;;;5.70;1.70;;;;;;;13.93;100.00;93771.41;5114014;28;20624;-80
2021/09/16 00:58:02;;;;;;;6.72;1.50;;;;;;;13.99;100.00;93778.41;5114229;28;20205;-80
2021/09/16 01:00:30;;;;;;;5.72;1.67;;;;;;;13.99;100.00;93772.31;5109697;28;20280;-80
2021/09/16 01:02:56;;;;;;;5.68;1.40;;;;;;;13.99;100.00;93774.94;5092984;28;20233;-81
2021/09/16 01:05:23;;;;;;;5.47;1.60;;;;;;;14.00;100.00;93764.22;5093208;28;20663;-81
2021/09/16 01:07:49;;;;;;;12.18;1.73;;;;;;;13.97;100.00;93769.94;5093359;28;20652;-80
2021/09/16 01:10:16;;;;;;;4.40;1.63;;;;;;;14.02;100.00;93764.84;5093419;28;20198;-80
2021/09/16 01:12:44;;;;;;;4.78;1.67;;;;;;;14.02;100.00;93774.50;5093616;28;20202;-81
2021/09/16 01:15:11;;;;;;;6.60;1.80;;;;;;;14.03;100.00;93753.28;5093509;28;20229;-80
2021/09/16 01:17:39;;;;;;;6.35;1.55;;;;;;;14.06;100.00;93758.09;5093494;28;20202;-81
2021/09/16 01:20:08;;;;;;;3.55;1.63;;;;;;;14.06;100.00;93757.31;5093392;28;20248;-80
2021/09/16 01:22:36;;;;;;;4.50;1.63;;;;;;;14.03;100.00;93745.41;5093285;28;20230;-81
2021/09/16 01:25:04;;;;;;;8.25;1.75;;;;;;;14.04;100.00;93754.91;5092973;28;20578;-81
2021/09/16 01:27:30;;;;;;;3.03;1.58;;;;;;;14.01;100.00;93747.47;5093418;28;20202;-81
2021/09/16 01:29:57;;;;;;;4.45;1.85;;;;;;;14.05;100.00;93745.19;5093302;28;20537;-81
2021/09/16 01:32:24;;;;;;;2.75;1.65;;;;;;;14.05;100.00;93748.66;5091461;28;20594;-80
2021/09/16 01:34:50;;;;;;;3.97;1.60;;;;;;;14.05;100.00;93738.16;5091598;28;20201;-82
2021/09/16 01:37:17;;;;;;;6.40;1.50;;;;;;;14.04;100.00;93739.16;5091226;28;20198;-81
2021/09/16 01:39:45;;;;;;;3.47;1.70;;;;;;;14.02;100.00;93738.59;5091632;28;20198;-81
2021/09/16 01:42:11;;;;;;;6.60;1.63;;;;;;;13.99;100.00;93741.66;5091966;28;20595;-82
2021/09/16 01:44:38;;;;;;;3.03;1.45;;;;;;;14.00;100.00;93748.47;5092079;28;20209;-81
2021/09/16 01:47:06;;;;;;;4.03;1.60;;;;;;;13.98;100.00;93744.50;5092219;28;20202;-81
2021/09/16 01:49:32;;;;;;;5.53;1.40;;;;;;;13.94;100.00;93743.31;5093000;28;20579;-81
2021/09/16 01:51:59;;;;;;;1.77;1.17;;;;;;;13.87;100.00;93753.91;5092918;28;20213;-81
2021/09/16 01:54:26;;;;;;;6.43;1.70;;;;;;;13.83;100.00;93742.25;5091690;28;20202;-81
2021/09/16 01:56:54;;;;;;;4.50;1.38;;;;;;;13.81;100.00;93745.09;5093075;28;20201;-81
2021/09/16 01:59:20;;;;;;;7.15;1.55;;;;;;;13.77;100.00;93743.13;5093014;28;20201;-81
2021/09/16 02:01:47;;;;;;;7.43;1.65;;;;;;;13.77;100.00;93737.88;5092938;28;20553;-80
2021/09/16 02:04:13;;;;;;;5.22;1.75;;;;;;;13.78;100.00;93739.50;5092674;28;20230;-81
2021/09/16 02:06:40;;;;;;;7.30;1.40;;;;;;;13.73;100.00;93736.75;5092766;28;20247;-80
2021/09/16 02:09:06;;;;;;;4.72;1.73;;;;;;;13.69;100.00;93742.41;5093054;28;20206;-80
2021/09/16 02:11:33;;;;;;;2.17;1.45;;;;;;;13.73;100.00;93731.50;5092968;28;20228;-80
2021/09/16 02:14:00;;;;;;;4.15;1.90;;;;;;;13.69;100.00;93742.41;5092838;28;20239;-81
2021/09/16 02:16:27;;;;;;;7.43;1.85;;;;;;;13.67;100.00;93736.59;5092821;28;20198;-80
2021/09/16 02:18:53;;;;;;;4.15;1.55;;;;;;;13.68;100.00;93738.19;5092634;28;20206;-81
2021/09/16 02:21:20;;;;;;;9.10;1.80;;;;;;;13.74;100.00;93733.06;5092912;28;20255;-81
2021/09/16 02:23:47;;;;;;;4.25;1.75;;;;;;;13.71;100.00;93738.78;5092792;28;20229;-80
2021/09/16 02:26:13;;;;;;;4.75;2.10;;;;;;;13.70;100.00;93732.72;5092563;28;20229;-80
2021/09/16 02:28:40;;;;;;;8.75;1.73;;;;;;;13.73;100.00;93732.28;5092541;28;20206;-80
2021/09/16 02:31:07;;;;;;;3.03;1.85;;;;;;;13.74;100.00;93736.53;5092538;28;20671;-80
2021/09/16 02:33:34;;;;;;;10.35;2.42;;;;;;;13.75;100.00;93732.84;5092472;28;20198;-79
2021/09/16 02:36:01;;;;;;;5.50;2.30;;;;;;;13.76;100.00;93728.44;5092727;28;20202;-80
2021/09/16 02:38:27;;;;;;;5.80;1.70;;;;;;;13.79;100.00;93730.59;5112729;28;20197;-80
2021/09/16 02:40:54;;;;;;;13.63;2.20;;;;;;;13.76;100.00;93721.34;5112961;28;20201;-81
2021/09/16 02:43:21;;;;;;;3.33;2.10;;;;;;;13.74;100.00;93722.56;5112813;28;20621;-80
2021/09/16 02:45:47;;;;;;;10.32;2.60;;;;;;;13.76;100.00;93723.19;5112836;28;20571;-80
2021/09/16 02:48:15;;;;;;;5.00;2.25;;;;;;;13.75;100.00;93722.34;5112705;28;20205;-80
2021/09/16 02:50:42;;;;;;;4.53;2.03;;;;;;;13.78;100.00;93726.38;5112843;28;20205;-79
2021/09/16 02:53:08;;;;;;;9.23;2.10;;;;;;;13.81;100.00;93723.31;5112869;28;20202;-79
2021/09/16 02:55:34;;;;;;;7.18;2.33;;;;;;;13.84;100.00;93718.41;5112804;28;20202;-79
2021/09/16 02:58:01;;;;;;;4.55;2.00;;;;;;;13.91;100.00;93723.59;5112638;28;20197;-80
2021/09/16 03:00:27;;;;;;;4.47;2.55;;;;;;;13.96;100.00;93720.31;5116083;28;20207;-80
2021/09/16 03:02:54;;;;;;;8.52;2.30;;;;;;;13.99;100.00;93725.91;5115608;28;20446;-79
2021/09/16 03:05:22;;;;;;;4.30;2.35;;;;;;;14.00;100.00;93716.97;5116379;28;20205;-80
2021/09/16 03:07:48;;;;;;;7.07;2.20;;;;;;;13.98;100.00;93708.53;5116298;28;20194;-80
2021/09/16 03:10:14;;;;;;;5.30;2.10;;;;;;;13.97;100.00;93711.38;5116237;28;20201;-79
2021/09/16 03:12:41;;;;;;;6.53;2.33;;;;;;;13.99;100.00;93709.31;5116175;28;20201;-79
2021/09/16 03:15:09;;;;;;;5.28;2.10;;;;;;;13.96;100.00;93707.97;5115883;28;20201;-80
2021/09/16 03:17:36;;;;;;;7.32;2.53;;;;;;;13.97;100.00;93700.88;5116222;28;20205;-80
2021/09/16 03:20:04;;;;;;;12.05;2.08;;;;;;;13.95;100.00;93708.97;5116023;28;20205;-79
2021/09/16 03:22:32;;;;;;;8.85;2.20;;;;;;;13.92;100.00;93700.75;5115906;28;20194;-79
2021/09/16 03:24:58;;;;;;;10.80;2.13;;;;;;;13.86;100.00;93705.09;5115697;28;20228;-80
2021/09/16 03:27:25;;;;;;;4.45;2.00;;;;;;;13.84;100.00;93709.75;5115839;28;20197;-79
2021/09/16 03:29:51;;;;;;;9.00;2.38;;;;;;;13.82;100.00;93709.16;5115671;28;20651;-79
2021/09/16 03:32:18;;;;;;;8.48;2.20;;;;;;;13.84;100.00;93709.75;5115924;28;20201;-80
2021/09/16 03:34:44;;;;;;;4.20;2.10;;;;;;;13.87;100.00;93706.66;5115863;28;20231;-79
2021/09/16 03:37:11;;;;;;;14.57;2.53;;;;;;;13.87;100.00;93701.41;5115630;28;20201;-80
2021/09/16 03:39:38;;;;;;;6.38;2.00;;;;;;;13.87;100.00;93702.22;5115501;28;20259;-80
2021/09/16 03:42:06;;;;;;;8.52;2.08;;;;;;;13.87;100.00;93706.66;5115540;28;20201;-80
2021/09/16 03:44:32;;;;;;;9.98;2.20;;;;;;;13.88;100.00;93703.03;5115383;28;20232;-80
2021/09/16 03:46:59;;;;;;;6.32;2.00;;;;;;;13.95;100.00;93714.22;5115560;28;20193;-80
2021/09/16 03:49:25;;;;;;;6.13;2.10;;;;;;;13.95;100.00;93711.59;5115347;28;20545;-79
2021/09/16 03:51:51;;;;;;;8.25;2.83;;;;;;;13.95;100.00;93714.22;5115275;28;20201;-80
2021/09/16 03:54:18;;;;;;;5.88;2.42;;;;;;;14.01;100.00;93713.34;5115306;28;20205;-79
2021/09/16 03:56:46;;;;;;;7.35;2.35;;;;;;;14.05;100.00;93714.53;5115177;28;20197;-79
2021/09/16 03:59:12;;;;;;;4.15;1.90;;;;;;;14.10;100.00;93720.91;5115095;28;20198;-79
2021/09/16 04:01:39;;;;;;;12.27;2.42;;;;;;;14.07;100.00;93722.16;5115282;28;20262;-79
2021/09/16 04:04:05;;;;;;;7.30;1.92;;;;;;;14.04;100.00;93718.16;5113708;28;20229;-80
2021/09/16 04:06:31;;;;;;;4.10;2.28;;;;;;;14.01;100.00;93715.97;5115204;28;20201;-80
2021/09/16 04:08:58;;;;;;;10.43;2.08;;;;;;;14.02;100.00;93720.22;5114727;28;20201;-79
2021/09/16 04:11:24;;;;;;;4.53;2.10;;;;;;;14.03;100.00;93727.03;5114805;28;20197;-79
2021/09/16 04:13:52;;;;;;;4.80;2.90;;;;;;;14.03;100.00;93721.78;5114977;28;20205;-79
2021/09/16 04:16:19;;;;;;;5.38;2.53;;;;;;;14.11;100.00;93722.53;5115377;28;20193;-79
2021/09/16 04:18:45;;;;;;;7.32;2.50;;;;;;;14.06;100.00;93716.09;5114649;28;20204;-79
2021/09/16 04:21:12;;;;;;;5.57;2.25;;;;;;;14.06;100.00;93721.34;5114884;28;20201;-80
2021/09/16 04:23:38;;;;;;;4.35;2.53;;;;;;;14.10;100.00;93723.53;5114620;28;20221;-79
2021/09/16 04:26:05;;;;;;;7.07;2.55;;;;;;;14.13;100.00;93726.50;5114318;28;20225;-79
2021/09/16 04:28:31;;;;;;;5.40;2.35;;;;;;;14.13;100.00;93736.22;5114518;28;20675;-79
2021/09/16 04:30:59;;;;;;;3.72;2.15;;;;;;;14.14;100.00;93722.06;5114729;28;20197;-79
2021/09/16 04:33:26;;;;;;;7.47;2.22;;;;;;;14.17;100.00;93732.09;5114657;28;20572;-79
2021/09/16 04:35:52;;;;;;;3.75;2.08;;;;;;;14.17;100.00;93726.84;5113990;28;20197;-80
2021/09/16 04:38:18;;;;;;;8.85;2.15;;;;;;;14.17;100.00;93730.31;5114312;28;20697;-80
2021/09/16 04:40:45;;;;;;;7.15;2.42;;;;;;;14.18;100.00;93725.84;5114313;28;20254;-79
2021/09/16 04:43:12;;;;;;;4.43;2.08;;;;;;;14.17;100.00;93724.22;5114350;28;20201;-80
2021/09/16 04:45:38;;;;;;;10.20;2.72;;;;;;;14.23;100.00;93725.97;5114436;28;20208;-79
2021/09/16 04:48:06;;;;;;;9.02;2.90;;;;;;;14.24;100.00;93730.22;5114316;28;20541;-80
2021/09/16 04:50:35;;;;;;;6.35;2.40;;;;;;;14.24;100.00;93730.22;5114235;28;20293;-80
2021/09/16 04:53:02;;;;;;;3.42;2.30;;;;;;;14.22;100.00;93724.34;5113987;28;20201;-79
2021/09/16 04:55:28;;;;;;;13.50;2.25;;;;;;;14.20;100.00;93724.59;5114282;28;20209;-79
2021/09/16 04:57:55;;;;;;;8.02;2.42;;;;;;;14.21;100.00;93726.19;5114025;28;20659;-79
2021/09/16 05:00:22;;;;;;;10.85;3.22;;;;;;;14.24;100.00;93727.59;5114108;28;20197;-80
2021/09/16 05:02:48;;;;;;;9.10;2.85;;;;;;;14.27;100.00;93732.38;5113871;28;20208;-79
2021/09/16 05:05:16;;;;;;;10.68;2.75;;;;;;;14.26;100.00;93741.28;5113226;28;20248;-79
2021/09/16 05:07:43;;;;;;;5.88;2.00;;;;;;;14.23;100.00;93725.97;5113457;28;20197;-80
2021/09/16 05:10:10;;;;;;;9.65;2.50;;;;;;;14.21;100.00;93733.28;5112222;28;20684;-80
2021/09/16 05:12:37;;;;;;;4.80;2.50;;;;;;;14.25;100.00;93730.00;5113608;28;20660;-80
2021/09/16 05:15:03;;;;;;;7.65;2.58;;;;;;;14.27;100.00;93737.63;5113801;28;20201;-80
2021/09/16 05:17:30;;;;;;;10.10;3.05;;;;;;;14.28;100.00;93735.81;5113736;28;20258;-80
2021/09/16 05:19:57;;;;;;;12.32;3.95;;;;;;;14.29;100.00;93740.84;5112738;28;20435;-81
2021/09/16 05:22:25;;;;;;;7.68;3.03;;;;;;;14.30;100.00;93736.38;5112823;28;20228;-81
2021/09/16 05:24:51;;;;;;;5.40;2.72;;;;;;;14.32;100.00;93729.91;5113650;28;20236;-81
2021/09/16 05:27:19;;;;;;;11.07;2.28;;;;;;;14.34;100.00;93738.34;5113405;28;20229;-80
2021/09/16 05:29:46;;;;;;;5.43;2.40;;;;;;;14.28;100.00;93733.97;5113679;28;20201;-81
2021/09/16 05:32:12;;;;;;;11.48;2.45;;;;;;;14.29;100.00;93737.41;5113526;28;20298;-80
2021/09/16 05:34:39;;;;;;;11.85;2.45;;;;;;;14.30;100.00;93736.38;5113439;28;20200;-80
2021/09/16 05:37:06;;;;;;;8.55;2.70;;;;;;;14.31;100.00;93728.28;5113453;28;20198;-80
2021/09/16 05:39:34;;;;;;;9.25;3.20;;;;;;;14.33;100.00;93731.47;5113360;28;20598;-80
2021/09/16 05:42:00;;;;;;;8.77;2.50;;;;;;;14.35;100.00;93728.63;5113452;28;20603;-80
2021/09/16 05:44:27;;;;;;;8.88;3.30;;;;;;;14.44;100.00;93728.09;5113361;28;20225;-79
2021/09/16 05:46:53;;;;;;;7.07;3.05;;;;;;;14.46;100.00;93725.22;5113374;28;20197;-80
2021/09/16 05:49:20;;;;;;;10.88;3.10;;;;;;;14.49;100.00;93731.84;5113207;28;20193;-80
2021/09/16 05:51:46;;;;;;;9.00;2.97;;;;;;;14.48;100.00;93735.53;5113487;28;20201;-80
2021/09/16 05:54:12;;;;;;;5.55;2.83;;;;;;;14.46;100.00;93730.50;5113486;28;20205;-80
2021/09/16 05:56:40;;;;;;;6.85;3.17;;;;;;;14.47;100.00;93737.34;5113398;28;20205;-80
2021/09/16 05:59:07;;;;;;;11.90;4.53;;;;;;;14.55;100.00;93738.84;5113312;28;20209;-80
2021/09/16 06:01:33;;;;;;;9.75;3.75;;;;;;;14.59;100.00;93740.03;5113211;28;20197;-80
2021/09/16 06:04:00;;;;;;;9.82;3.33;;;;;;;14.63;100.00;93741.16;5112697;28;20450;-80
2021/09/16 06:06:26;;;;;;;7.10;2.65;;;;;;;14.71;100.00;93745.31;5113385;28;20197;-81
2021/09/16 06:08:52;;;;;;;5.47;2.83;;;;;;;14.71;100.00;93746.09;5113244;28;20205;-80
2021/09/16 06:11:19;;;;;;;10.65;3.50;;;;;;;14.70;100.00;93747.13;5113313;28;20197;-80
2021/09/16 06:13:47;;;;;;;4.93;3.15;;;;;;;14.84;100.00;93746.91;5113129;28;20193;-80
2021/09/16 06:16:13;;;;;;;10.50;3.00;;;;;;;14.84;100.00;93747.72;5111766;28;20626;-79
2021/09/16 06:18:39;;;;;;;6.30;2.92;;;;;;;14.88;100.00;93742.81;5113040;28;20220;-80
2021/09/16 06:21:06;;;;;;;6.22;2.97;;;;;;;14.90;100.00;93746.00;5113137;28;20200;-80
2021/09/16 06:23:32;;;;;;;12.82;3.00;;;;;;;14.88;100.00;93746.22;5113114;28;20201;-79
2021/09/16 06:26:00;;;;;;;12.77;3.30;;;;;;;14.91;100.00;93747.63;5112874;28;20247;-79
2021/09/16 06:28:26;;;;;;;5.82;3.35;;;;;;;14.98;100.00;93748.28;5113030;28;20224;-79
2021/09/16 06:30:54;;;;;;;6.55;3.00;;;;;;;15.06;100.00;93755.06;5112952;28;20651;-80
2021/09/16 06:33:20;;;;;;;8.65;2.92;;;;;;;15.23;100.00;93755.94;5115983;28;20208;-79
2021/09/16 06:35:47;;;;;;;9.70;3.17;;;;;;;15.49;100.00;93757.31;5117003;28;20212;-79
2021/09/16 06:38:13;;;;;;;8.95;2.67;;;;;;;15.72;100.00;93755.66;5116893;28;20579;-79
2021/09/16 06:40:40;;;;;;;6.25;2.95;;;;;;;15.88;100.00;93754.94;5116827;28;20572;-80
2021/09/16 06:43:06;;;;;;;12.65;3.00;;;;;;;16.00;100.00;93757.53;5116796;28;20246;-80
2021/09/16 06:45:33;;;;;;;5.15;2.45;;;;;;;16.16;100.00;93756.00;5115832;28;20221;-80
2021/09/16 06:48:00;;;;;;;5.85;3.08;;;;;;;16.30;100.00;93745.97;5116784;28;20197;-80
2021/09/16 06:50:27;;;;;;;5.40;2.85;;;;;;;16.42;100.00;93749.38;5115644;28;20438;-80
2021/09/16 06:52:53;;;;;;;3.67;2.28;;;;;;;16.42;100.00;93748.56;5116592;28;20193;-79
2021/09/16 06:55:20;;;;;;;6.97;2.50;;;;;;;16.62;100.00;93753.38;5116611;28;20201;-79
2021/09/16 06:57:46;;;;;;;4.72;2.40;;;;;;;16.92;100.00;93752.28;5116455;28;20201;-80
2021/09/16 07:00:15;;;;;;;4.45;1.80;;;;;;;16.87;100.00;93752.22;5116249;28;20205;-81
2021/09/16 07:02:41;;;;;;;3.58;1.73;;;;;;;17.12;100.00;93757.09;5116452;28;20280;-79
2021/09/16 07:05:11;;;;;;;6.45;2.20;;;;;;;17.53;100.00;93755.03;5116341;28;20225;-79
2021/09/16 07:07:37;;;;;;;4.53;1.80;;;;;;;17.51;100.00;93757.13;5116417;28;20556;-79
2021/09/16 07:10:04;;;;;;;4.45;1.33;;;;;;;17.55;100.00;93766.94;5116213;28;20200;-79
2021/09/16 07:12:30;;;;;;;3.78;1.48;;;;;;;17.77;100.00;93766.16;5116202;28;20202;-80
2021/09/16 07:14:58;;;;;;;3.78;1.42;;;;;;;18.01;100.00;93761.47;5116039;28;20756;-79
2021/09/16 07:17:25;;;;;;;3.67;1.40;;;;;;;18.06;100.00;93763.38;5116213;28;20262;-79
2021/09/16 07:19:51;;;;;;;9.52;1.70;;;;;;;18.16;100.00;93754.75;5114799;28;20209;-79
2021/09/16 07:22:19;;;;;;;5.57;1.50;;;;;;;18.09;100.00;93753.09;5109974;28;20250;-80
2021/09/16 07:24:45;;;;;;;3.33;1.52;;;;;;;18.14;100.00;93755.00;5113207;28;20229;-80
2021/09/16 07:27:12;;;;;;;3.10;1.48;;;;;;;18.07;100.00;93760.47;5113107;28;20233;-80
2021/09/16 07:29:38;;;;;;;3.42;1.45;;;;;;;17.92;100.00;93760.31;5114722;28;20205;-80
2021/09/16 07:32:05;;;;;;;6.07;1.67;;;;;;;17.85;100.00;93762.28;5114925;28;20250;-79
2021/09/16 07:34:32;;;;;;;5.13;1.50;;;;;;;17.87;100.00;93776.06;5114709;28;20205;-79
2021/09/16 07:36:58;;;;;;;3.03;1.40;;;;;;;17.91;100.00;93771.91;5115130;28;20204;-79
2021/09/16 07:39:26;;;;;;;6.05;1.42;;;;;;;18.16;100.00;93773.25;5114735;28;20663;-79
2021/09/16 07:41:53;;;;;;;3.67;1.50;;;;;;;18.24;100.00;93770.19;5114442;28;20205;-79
2021/09/16 07:44:20;;;;;;;1.98;1.10;;;;;;;18.67;100.00;93779.06;5114608;28;20220;-79
2021/09/16 07:46:46;;;;;;;2.80;1.40;;;;;;;18.57;100.00;93778.94;5115358;28;20262;-80
2021/09/16 07:49:13;;;;;;;5.88;1.58;;;;;;;18.78;100.00;93785.22;5115548;28;20575;-79
2021/09/16 07:51:40;;;;;;;3.75;1.20;;;;;;;18.71;100.00;93785.44;5115131;28;20208;-79
2021/09/16 07:54:11;;;;;;;4.30;1.38;;;;;;;18.70;100.00;93789.13;5115356;28;20204;-79
2021/09/16 07:56:39;;;;;;;3.45;1.38;;;;;;;18.92;100.00;93785.63;5115172;28;20292;-79
2021/09/16 07:59:06;;;;;;;3.15;1.42;;;;;;;19.28;100.00;93789.38;5115353;28;20236;-79
2021/09/16 08:01:35;;;;;;;8.82;1.65;;;;;;;19.64;100.00;93802.84;5115231;28;20205;-79
2021/09/16 08:04:01;;;;;;;2.70;1.20;;;;;;;19.56;100.00;93798.81;5114932;28;20647;-80
2021/09/16 08:06:29;;;;;;;3.55;1.20;;;;;;;19.25;100.00;93795.16;5114991;28;20225;-79
2021/09/16 08:08:56;;;;;;;5.10;1.50;;;;;;;19.06;100.00;93797.41;5114129;28;20857;-80
2021/09/16 08:11:23;;;;;;;6.00;1.40;;;;;;;18.84;100.00;93797.50;5114903;28;20201;-79
2021/09/16 08:13:51;;;;;;;3.78;1.40;;;;;;;18.66;100.00;93796.75;5114864;28;20200;-79
2021/09/16 08:16:18;;;;;;;4.50;1.23;;;;;;;18.88;100.00;93803.09;5114920;28;20552;-79
2021/09/16 08:18:44;;;;;;;4.65;1.30;;;;;;;18.67;100.00;93802.88;5115043;28;20563;-79
2021/09/16 08:21:13;;;;;;;4.13;1.30;;;;;;;18.55;100.00;93802.22;5112726;28;20439;-79
2021/09/16 08:23:39;;;;;;;3.95;1.40;;;;;;;18.36;100.00;93799.91;5114275;28;20197;-80
2021/09/16 08:26:06;;;;;;;3.35;1.30;;;;;;;18.24;100.00;93807.19;5114495;28;20238;-78
2021/09/16 08:28:34;;;;;;;3.10;1.30;;;;;;;17.75;100.00;93808.66;5114767;28;20200;-80
2021/09/16 08:31:03;;;;;;;3.58;1.80;;;;;;;17.53;100.00;93808.63;5114681;28;20286;-80
2021/09/16 08:33:30;;;;;;;2.33;1.48;;;;;;;17.46;100.00;93812.47;5113765;28;20295;-80
2021/09/16 08:35:56;;;;;;;3.97;1.50;;;;;;;17.31;100.00;93819.13;5114175;28;20292;-80
2021/09/16 08:38:23;;;;;;;5.80;1.73;;;;;;;17.05;100.00;93817.13;5104722;28;20284;-79
2021/09/16 08:40:50;;;;;;;3.58;1.90;;;;;;;16.92;100.00;93818.22;5098012;28;20212;-77
2021/09/16 08:43:19;;;;;;;2.75;1.70;;;;;;;16.96;100.00;93817.53;5113626;28;20291;-79
2021/09/16 08:45:47;;;;;;;3.25;1.88;;;;;;;17.00;100.00;93816.03;5113932;28;20315;-78
2021/09/16 08:48:15;;;;;;;3.92;1.90;;;;;;;17.21;100.00;93813.69;5114227;28;20198;-79
2021/09/16 08:50:42;;;;;;;5.53;2.10;;;;;;;17.49;100.00;93818.06;5114018;28;20679;-78
2021/09/16 08:53:17;;;;;;;6.30;1.90;;;;;;;17.74;100.00;93820.25;5114127;28;20204;-80
2021/09/16 08:55:44;;;;;;;5.50;1.60;;;;;;;17.64;100.00;93825.41;5113122;28;20197;-78
2021/09/16 08:58:12;;;;;;;2.63;1.45;;;;;;;17.82;100.00;93823.53;5113696;28;20606;-79
2021/09/16 09:00:42;;;;;;;5.07;1.60;;;;;;;18.07;100.00;93815.97;5108526;28;20536;-79
2021/09/16 09:03:11;;;;;;;3.80;1.70;;;;;;;18.44;100.00;93817.97;5112898;28;20201;-80
2021/09/16 09:05:41;;;;;;;3.35;1.48;;;;;;;18.46;100.00;93815.06;5113192;28;20451;-79
2021/09/16 09:08:07;;;;;;;2.05;1.40;;;;;;;18.51;100.00;93801.13;5113839;28;20647;-80
2021/09/16 09:10:45;;;;;;;2.45;1.15;;;;;;;18.75;100.00;93806.91;5113139;28;20209;-80
2021/09/16 09:13:14;;;;;;;6.55;1.55;;;;;;;19.13;100.00;93805.94;5111250;28;20283;-80
2021/09/16 09:15:42;;;;;;;5.00;1.52;;;;;;;19.07;100.00;93803.50;5113359;28;20228;-80
2021/09/16 09:18:13;;;;;;;3.55;1.55;;;;;;;18.75;100.00;93813.00;5113539;28;20197;-80
2021/09/16 09:20:57;;;;;;;7.43;1.75;;;;;;;17.76;100.00;93835.88;5113696;28;20551;-77
2021/09/16 09:23:26;;;;;;;3.90;1.20;;;;;;;17.13;100.00;93832.56;5113748;28;20669;-76
2021/09/16 09:25:53;;;;;;;1.75;1.05;;;;;;;16.65;100.00;93845.16;5112720;28;20244;-76
2021/09/16 09:28:31;;;;;;;2.80;1.40;;;;;;;16.28;100.00;93843.69;5111485;28;20201;-76
2021/09/16 09:30:59;;;;;;;3.05;1.02;;;;;;;16.11;100.00;93853.38;5111653;28;20210;-78
2021/09/16 09:33:31;;;;;;;2.05;1.25;;;;;;;16.10;100.00;93854.38;5111616;28;20200;-77
2021/09/16 09:36:07;;;;;;;3.67;1.40;;;;;;;16.04;100.00;93850.06;5111485;28;20198;-75
2021/09/16 09:38:34;;;;;;;3.90;1.63;;;;;;;15.88;100.00;93855.00;5111418;28;20250;-76
2021/09/16 09:41:02;;;;;;;2.05;1.00;;;;;;;15.77;100.00;93852.38;5111955;28;20644;-77
2021/09/16 09:43:30;;;;;;;3.70;1.17;;;;;;;15.68;100.00;93852.69;5113285;28;20201;-76
2021/09/16 09:46:05;;;;;;;5.95;1.00;;;;;;;15.79;100.00;93855.59;5113432;28;20319;-76
2021/09/16 09:48:36;;;;;;;1.67;0.82;;;;;;;15.79;100.00;93859.03;5113329;28;20199;-77
2021/09/16 09:51:05;;;;;;;1.02;0.90;;;;;;;15.72;100.00;93855.66;5113218;28;20197;-77
2021/09/16 09:53:37;;;;;;;4.00;0.80;;;;;;;15.74;100.00;93858.91;5113253;28;20201;-77
2021/09/16 09:56:11;;;;;;;2.05;0.70;;;;;;;15.68;100.00;93857.19;5113455;28;20205;-77
2021/09/16 09:58:39;;;;;;;1.33;0.68;;;;;;;15.61;100.00;93865.19;5113356;28;20204;-76
2021/09/16 10:01:26;;;;;;;0.57;0.50;;;;;;;15.23;100.00;93870.88;5113239;28;20201;-75
2021/09/16 10:03:52;;;;;;;0.73;0.50;;;;;;;15.17;100.00;93865.50;5113105;28;20670;-76
2021/09/16 10:06:32;;;;;;;1.23;0.80;;;;;;;15.31;100.00;93867.91;5113378;28;20228;-76
2021/09/16 10:09:10;;;;;;;1.40;0.50;;;;;;;15.19;100.00;93867.91;5117505;28;20288;-76
2021/09/16 10:11:42;;;;;;;1.77;0.30;;;;;;;15.04;100.00;93870.97;5117359;28;20201;-75
2021/09/16 10:14:09;;;;;;;3.45;0.60;;;;;;;14.96;100.00;93872.09;5117461;28;20219;-76
2021/09/16 10:16:35;;;;;;;0.45;0.40;;;;;;;14.86;100.00;93871.84;5117386;28;20197;-76
2021/09/16 10:19:02;;;;;;;11.50;0.52;;;;;;;14.91;100.00;93871.16;5117262;28;20198;-77
2021/09/16 10:21:30;;;;;;;0.45;0.40;;;;;;;14.95;100.00;93875.75;5117240;28;20197;-76
2021/09/16 10:24:01;;;;;;;0.50;0.50;;;;;;;15.08;100.00;93884.47;5117024;28;20435;-76
2021/09/16 10:26:33;;;;;;;0.57;0.50;;;;;;;14.91;100.00;93886.94;5116760;28;20244;-77
2021/09/16 10:28:59;;;;;;;1.67;0.57;;;;;;;14.85;100.00;93885.19;5117157;28;20205;-76
2021/09/16 10:31:26;;;;;;;0.57;0.43;;;;;;;14.85;100.00;93885.19;5117137;28;20201;-76
2021/09/16 10:33:53;;;;;;;0.50;0.50;;;;;;;14.96;100.00;93882.59;5117014;28;20308;-77
2021/09/16 10:36:19;;;;;;;0.50;0.50;;;;;;;15.10;100.00;93883.19;5115941;28;20435;-77
2021/09/16 10:38:51;;;;;;;0.60;0.55;;;;;;;15.30;100.00;93882.88;5116690;28;20204;-77
2021/09/16 10:41:21;;;;;;;3.67;0.60;;;;;;;15.40;100.00;93877.06;5116999;28;20210;-77
2021/09/16 10:44:09;;;;;;;0.40;0.40;;;;;;;15.56;100.00;93891.38;5116913;28;20197;-77
2021/09/16 10:46:40;;;;;;;1.67;0.50;;;;;;;15.61;100.00;93882.81;5106349;28;20786;-77
2021/09/16 10:49:33;;;;;;;0.65;0.60;;;;;;;15.77;100.00;93892.69;5116682;28;20202;-77
2021/09/16 10:52:02;;;;;;;0.70;0.60;;;;;;;15.85;100.00;93887.09;5116719;28;20197;-77
2021/09/16 10:54:39;;;;;;;0.50;0.47;;;;;;;15.91;100.00;93894.03;5116584;28;20259;-77
2021/09/16 10:57:07;;;;;;;0.88;0.50;;;;;;;16.03;100.00;93893.22;5116585;28;20204;-78
2021/09/16 11:00:03;;;;;;;0.93;0.50;;;;;;;16.18;100.00;93892.75;5116447;28;20197;-78
2021/09/16 11:03:15;;;;;;;0.30;0.30;;;;;;;16.31;100.00;93900.41;5116465;28;20555;-78
2021/09/16 11:05:51;;;;;;;0.95;0.57;;;;;;;16.08;100.00;93898.59;5116392;28;20328;-78
2021/09/16 11:08:19;;;;;;;1.15;0.70;;;;;;;15.81;100.00;93896.47;5116437;28;20254;-78
2021/09/16 11:10:58;;;;;;;2.20;0.70;;;;;;;15.59;100.00;93898.00;5116032;28;20500;-79
2021/09/16 11:13:40;;;;;;;1.70;0.60;;;;;;;15.65;100.00;93891.84;5116235;28;20208;-78
2021/09/16 11:16:08;;;;;;;0.60;0.60;;;;;;;15.71;100.00;93891.72;5116143;28;20204;-78
2021/09/16 11:18:35;;;;;;;2.67;0.70;;;;;;;15.72;100.00;93895.16;5114878;28;20213;-78
2021/09/16 11:21:06;;;;;;;3.75;0.82;;;;;;;15.48;100.00;93895.16;5116162;28;20198;-78
2021/09/16 11:23:35;;;;;;;0.93;0.90;;;;;;;15.56;100.00;93886.13;5116135;28;20208;-76
2021/09/16 11:26:04;;;;;;;1.27;1.00;;;;;;;15.75;100.00;93889.44;5115685;28;20244;-78
2021/09/16 11:28:31;;;;;;;3.03;0.80;;;;;;;15.96;100.00;93885.47;5115926;28;20208;-78